sensor_id;sensor_type;location;lat;lon;timestamp;P1;P2;P0
35654;PMS1003;21773;50.010;19.972;2023-03-26T00:01:52;3.60;2.60;2.00
35654;PMS1003;21773;50.010;19.972;2023-03-26T00:04:55;4.00;4.00;3.00
35654;PMS1003;21773;50.010;19.972;2023-03-26T00:07:58;6.00;5.00;5.00
35654;PMS1003;21773;50.010;19.972;2023-03-26T00:11:02;6.00;5.00;5.00
35654;PMS1003;21773;50.010;19.972;2023-03-26T00:14:07;4.60;4.60;4.00
35654;PMS1003;21773;50.010;19.972;2023-03-26T00:17:16;3.00;3.00;3.00
35654;PMS1003;21773;50.010;19.972;2023-03-26T00:20:19;4.00;4.00;4.00
35654;PMS1003;21773;50.010;19.972;2023-03-26T00:23:22;3.20;3.20;3.20
35654;PMS1003;21773;50.010;19.972;2023-03-26T00:26:26;4.00;4.00;3.40
35654;PMS1003;21773;50.010;19.972;2023-03-26T00:29:30;3.00;3.00;3.00
35654;PMS1003;21773;50.010;19.972;2023-03-26T00:32:37;4.80;4.00;4.00
35654;PMS1003;21773;50.010;19.972;2023-03-26T00:35:41;3.75;3.00;3.00
35654;PMS1003;21773;50.010;19.972;2023-03-26T00:38:48;3.00;3.00;3.00
35654;PMS1003;21773;50.010;19.972;2023-03-26T00:41:53;5.00;5.00;4.00
35654;PMS1003;21773;50.010;19.972;2023-03-26T00:44:56;2.00;2.00;2.00
35654;PMS1003;21773;50.010;19.972;2023-03-26T00:48:01;2.00;2.00;2.00
35654;PMS1003;21773;50.010;19.972;2023-03-26T00:51:06;5.00;5.00;4.00
35654;PMS1003;21773;50.010;19.972;2023-03-26T00:54:09;4.25;4.00;4.00
35654;PMS1003;21773;50.010;19.972;2023-03-26T00:57:13;4.00;4.00;4.00
35654;PMS1003;21773;50.010;19.972;2023-03-26T01:00:33;3.20;3.20;3.20
35654;PMS1003;21773;50.010;19.972;2023-03-26T01:03:40;5.00;5.00;5.00
35654;PMS1003;21773;50.010;19.972;2023-03-26T01:07:02;3.00;3.00;2.20
35654;PMS1003;21773;50.010;19.972;2023-03-26T01:10:11;6.00;6.00;5.40
35654;PMS1003;21773;50.010;19.972;2023-03-26T01:13:16;5.80;5.20;5.00
35654;PMS1003;21773;50.010;19.972;2023-03-26T01:16:22;6.00;6.00;6.00
35654;PMS1003;21773;50.010;19.972;2023-03-26T01:19:32;5.00;5.00;5.00
35654;PMS1003;21773;50.010;19.972;2023-03-26T01:22:43;3.00;3.00;2.20
35654;PMS1003;21773;50.010;19.972;2023-03-26T01:25:52;4.00;3.00;2.80
35654;PMS1003;21773;50.010;19.972;2023-03-26T01:29:01;5.00;5.00;5.00
35654;PMS1003;21773;50.010;19.972;2023-03-26T01:32:13;6.00;6.00;5.40
35654;PMS1003;21773;50.010;19.972;2023-03-26T01:35:29;3.60;3.60;3.40
35654;PMS1003;21773;50.010;19.972;2023-03-26T01:38:41;5.40;5.40;5.40
35654;PMS1003;21773;50.010;19.972;2023-03-26T01:41:57;4.60;4.60;4.60
35654;PMS1003;21773;50.010;19.972;2023-03-26T01:45:09;5.00;5.00;5.00
35654;PMS1003;21773;50.010;19.972;2023-03-26T01:48:16;7.00;7.00;6.00
35654;PMS1003;21773;50.010;19.972;2023-03-26T01:51:26;4.40;4.40;4.00
35654;PMS1003;21773;50.010;19.972;2023-03-26T01:54:31;3.20;3.00;3.00
35654;PMS1003;21773;50.010;19.972;2023-03-26T01:57:37;4.00;4.00;4.00
35654;PMS1003;21773;50.010;19.972;2023-03-26T02:00:54;5.00;5.00;4.60
35654;PMS1003;21773;50.010;19.972;2023-03-26T02:04:06;3.00;3.00;3.00
35654;PMS1003;21773;50.010;19.972;2023-03-26T02:07:24;3.00;3.00;2.00
35654;PMS1003;21773;50.010;19.972;2023-03-26T02:10:37;3.20;3.20;3.00
35654;PMS1003;21773;50.010;19.972;2023-03-26T02:13:46;5.00;5.00;4.60
35654;PMS1003;21773;50.010;19.972;2023-03-26T02:16:49;3.20;3.20;3.20
35654;PMS1003;21773;50.010;19.972;2023-03-26T02:19:52;3.00;3.00;3.00
35654;PMS1003;21773;50.010;19.972;2023-03-26T02:22:56;5.00;5.00;5.00
35654;PMS1003;21773;50.010;19.972;2023-03-26T02:26:01;5.00;4.00;4.00
35654;PMS1003;21773;50.010;19.972;2023-03-26T02:29:10;4.00;4.00;4.00
35654;PMS1003;21773;50.010;19.972;2023-03-26T02:32:17;3.75;3.75;3.75
35654;PMS1003;21773;50.010;19.972;2023-03-26T02:35:20;3.00;3.00;2.40
35654;PMS1003;21773;50.010;19.972;2023-03-26T02:38:30;4.33;4.00;4.00
35654;PMS1003;21773;50.010;19.972;2023-03-26T02:41:37;3.00;3.00;3.00
35654;PMS1003;21773;50.010;19.972;2023-03-26T02:44:44;3.00;3.00;2.20
35654;PMS1003;21773;50.010;19.972;2023-03-26T02:47:48;5.00;5.00;5.00
35654;PMS1003;21773;50.010;19.972;2023-03-26T02:51:16;4.00;4.00;4.00
35654;PMS1003;21773;50.010;19.972;2023-03-26T02:54:33;5.00;5.00;5.00
35654;PMS1003;21773;50.010;19.972;2023-03-26T02:57:56;4.00;4.00;3.00
35654;PMS1003;21773;50.010;19.972;2023-03-26T03:01:08;5.00;5.00;5.00
35654;PMS1003;21773;50.010;19.972;2023-03-26T03:04:21;3.20;3.20;3.20
35654;PMS1003;21773;50.010;19.972;2023-03-26T03:07:24;4.25;4.25;4.00
35654;PMS1003;21773;50.010;19.972;2023-03-26T03:10:27;5.00;4.00;4.00
35654;PMS1003;21773;50.010;19.972;2023-03-26T03:13:44;5.40;5.00;4.40
35654;PMS1003;21773;50.010;19.972;2023-03-26T03:17:07;7.00;6.00;5.60
35654;PMS1003;21773;50.010;19.972;2023-03-26T03:20:11;4.60;4.20;4.00
35654;PMS1003;21773;50.010;19.972;2023-03-26T03:23:15;3.40;3.40;3.00
35654;PMS1003;21773;50.010;19.972;2023-03-26T03:26:19;2.00;2.00;2.00
35654;PMS1003;21773;50.010;19.972;2023-03-26T03:29:26;5.00;4.00;4.00
35654;PMS1003;21773;50.010;19.972;2023-03-26T03:32:34;3.00;3.00;3.00
35654;PMS1003;21773;50.010;19.972;2023-03-26T03:35:38;3.00;3.00;2.20
35654;PMS1003;21773;50.010;19.972;2023-03-26T03:38:42;4.00;4.00;4.00
35654;PMS1003;21773;50.010;19.972;2023-03-26T03:41:50;4.60;4.60;4.00
35654;PMS1003;21773;50.010;19.972;2023-03-26T03:44:54;5.00;5.00;5.00
35654;PMS1003;21773;50.010;19.972;2023-03-26T03:48:37;3.50;3.50;3.25
35654;PMS1003;21773;50.010;19.972;2023-03-26T03:51:42;4.00;4.00;3.75
35654;PMS1003;21773;50.010;19.972;2023-03-26T03:55:14;4.40;4.40;4.00
35654;PMS1003;21773;50.010;19.972;2023-03-26T03:58:24;6.00;5.00;5.00
35654;PMS1003;21773;50.010;19.972;2023-03-26T04:01:34;3.80;3.00;3.00
35654;PMS1003;21773;50.010;19.972;2023-03-26T04:04:45;5.40;5.40;5.00
35654;PMS1003;21773;50.010;19.972;2023-03-26T04:07:54;6.00;5.00;5.00
35654;PMS1003;21773;50.010;19.972;2023-03-26T04:11:00;4.00;3.00;3.00
35654;PMS1003;21773;50.010;19.972;2023-03-26T04:14:22;2.60;2.60;2.00
35654;PMS1003;21773;50.010;19.972;2023-03-26T04:17:34;4.00;4.00;4.00
35654;PMS1003;21773;50.010;19.972;2023-03-26T04:20:47;5.00;5.00;5.00
35654;PMS1003;21773;50.010;19.972;2023-03-26T04:23:58;4.00;4.00;3.40
35654;PMS1003;21773;50.010;19.972;2023-03-26T04:27:24;5.60;5.60;5.00
35654;PMS1003;21773;50.010;19.972;2023-03-26T04:30:42;5.00;5.00;5.00
35654;PMS1003;21773;50.010;19.972;2023-03-26T04:34:06;3.40;3.40;3.40
35654;PMS1003;21773;50.010;19.972;2023-03-26T04:37:29;3.80;3.00;3.00
35654;PMS1003;21773;50.010;19.972;2023-03-26T04:40:42;2.80;2.80;2.00
35654;PMS1003;21773;50.010;19.972;2023-03-26T04:44:06;4.25;4.00;4.00
35654;PMS1003;21773;50.010;19.972;2023-03-26T04:47:10;4.00;4.00;4.00
35654;PMS1003;21773;50.010;19.972;2023-03-26T04:50:19;3.80;3.80;3.20
35654;PMS1003;21773;50.010;19.972;2023-03-26T04:53:24;3.25;3.25;3.25
35654;PMS1003;21773;50.010;19.972;2023-03-26T04:56:38;5.00;5.00;5.00
35654;PMS1003;21773;50.010;19.972;2023-03-26T05:00:02;6.25;5.25;5.00
35654;PMS1003;21773;50.010;19.972;2023-03-26T05:03:18;5.00;5.00;5.00
35654;PMS1003;21773;50.010;19.972;2023-03-26T05:06:23;5.00;4.75;4.75
35654;PMS1003;21773;50.010;19.972;2023-03-26T05:09:30;4.00;4.00;4.00
35654;PMS1003;21773;50.010;19.972;2023-03-26T05:12:44;5.00;5.00;5.00
35654;PMS1003;21773;50.010;19.972;2023-03-26T05:15:55;5.00;5.00;5.00
35654;PMS1003;21773;50.010;19.972;2023-03-26T05:19:13;4.50;3.75;3.00
35654;PMS1003;21773;50.010;19.972;2023-03-26T05:22:17;4.00;4.00;4.00
35654;PMS1003;21773;50.010;19.972;2023-03-26T05:25:40;4.00;4.00;4.00
35654;PMS1003;21773;50.010;19.972;2023-03-26T05:28:53;4.00;4.00;3.60
35654;PMS1003;21773;50.010;19.972;2023-03-26T05:32:00;4.00;3.00;2.20
35654;PMS1003;21773;50.010;19.972;2023-03-26T05:35:04;4.00;4.00;4.00
35654;PMS1003;21773;50.010;19.972;2023-03-26T05:38:08;4.00;4.00;4.00
35654;PMS1003;21773;50.010;19.972;2023-03-26T05:41:13;5.00;5.00;4.00
35654;PMS1003;21773;50.010;19.972;2023-03-26T05:44:17;7.00;7.00;7.00
35654;PMS1003;21773;50.010;19.972;2023-03-26T05:47:21;5.60;5.00;5.00
35654;PMS1003;21773;50.010;19.972;2023-03-26T05:50:24;4.00;4.00;4.00
35654;PMS1003;21773;50.010;19.972;2023-03-26T05:53:32;5.25;5.25;5.00
35654;PMS1003;21773;50.010;19.972;2023-03-26T05:56:56;5.50;5.50;5.00
35654;PMS1003;21773;50.010;19.972;2023-03-26T06:00:18;5.40;5.00;4.40
35654;PMS1003;21773;50.010;19.972;2023-03-26T06:03:25;6.00;6.00;5.40
35654;PMS1003;21773;50.010;19.972;2023-03-26T06:06:28;4.00;4.00;4.00
35654;PMS1003;21773;50.010;19.972;2023-03-26T06:09:34;7.40;7.40;7.40
35654;PMS1003;21773;50.010;19.972;2023-03-26T06:12:40;5.00;4.40;4.00
35654;PMS1003;21773;50.010;19.972;2023-03-26T06:15:44;5.60;5.00;4.00
35654;PMS1003;21773;50.010;19.972;2023-03-26T06:18:55;5.40;5.40;5.00
35654;PMS1003;21773;50.010;19.972;2023-03-26T06:22:25;4.00;4.00;4.00
35654;PMS1003;21773;50.010;19.972;2023-03-26T06:26:03;4.00;4.00;4.00
35654;PMS1003;21773;50.010;19.972;2023-03-26T06:29:15;3.40;3.40;3.00
35654;PMS1003;21773;50.010;19.972;2023-03-26T06:32:39;4.40;4.00;4.00
35654;PMS1003;21773;50.010;19.972;2023-03-26T06:35:50;4.20;3.20;3.20
35654;PMS1003;21773;50.010;19.972;2023-03-26T06:38:54;3.00;3.00;2.60
35654;PMS1003;21773;50.010;19.972;2023-03-26T06:41:57;4.00;4.00;4.00
35654;PMS1003;21773;50.010;19.972;2023-03-26T06:45:15;2.00;1.80;1.20
35654;PMS1003;21773;50.010;19.972;2023-03-26T06:48:45;3.00;3.00;3.00
35654;PMS1003;21773;50.010;19.972;2023-03-26T06:52:07;3.25;3.25;3.00
35654;PMS1003;21773;50.010;19.972;2023-03-26T06:55:13;4.40;4.40;4.00
35654;PMS1003;21773;50.010;19.972;2023-03-26T06:58:36;5.00;4.60;4.00
35654;PMS1003;21773;50.010;19.972;2023-03-26T07:02:14;3.40;3.00;3.00
35654;PMS1003;21773;50.010;19.972;2023-03-26T07:05:37;4.75;3.75;3.75
35654;PMS1003;21773;50.010;19.972;2023-03-26T07:09:03;4.00;4.00;4.00
35654;PMS1003;21773;50.010;19.972;2023-03-26T07:12:25;2.80;2.00;1.40
35654;PMS1003;21773;50.010;19.972;2023-03-26T07:15:49;3.00;3.00;3.00
35654;PMS1003;21773;50.010;19.972;2023-03-26T07:19:17;4.00;4.00;4.00
35654;PMS1003;21773;50.010;19.972;2023-03-26T07:22:22;3.80;3.80;3.20
35654;PMS1003;21773;50.010;19.972;2023-03-26T07:25:42;3.00;3.00;3.00
35654;PMS1003;21773;50.010;19.972;2023-03-26T07:28:46;5.80;4.80;4.00
35654;PMS1003;21773;50.010;19.972;2023-03-26T07:32:33;3.60;3.60;3.60
35654;PMS1003;21773;50.010;19.972;2023-03-26T07:36:18;4.00;4.00;3.40
35654;PMS1003;21773;50.010;19.972;2023-03-26T07:39:47;3.40;3.40;3.00
35654;PMS1003;21773;50.010;19.972;2023-03-26T07:43:05;4.00;4.00;3.00
35654;PMS1003;21773;50.010;19.972;2023-03-26T07:46:50;7.40;7.00;6.40
35654;PMS1003;21773;50.010;19.972;2023-03-26T07:50:32;5.00;4.00;4.00
35654;PMS1003;21773;50.010;19.972;2023-03-26T07:53:47;3.00;2.40;2.40
35654;PMS1003;21773;50.010;19.972;2023-03-26T07:57:13;5.00;5.00;4.60
35654;PMS1003;21773;50.010;19.972;2023-03-26T08:00:36;2.00;2.00;1.75
35654;PMS1003;21773;50.010;19.972;2023-03-26T08:08:01;2.80;2.40;2.00
35654;PMS1003;21773;50.010;19.972;2023-03-26T08:11:28;2.60;2.60;2.40
35654;PMS1003;21773;50.010;19.972;2023-03-26T08:14:44;4.00;4.00;3.50
35654;PMS1003;21773;50.010;19.972;2023-03-26T08:17:56;4.75;4.75;4.75
35654;PMS1003;21773;50.010;19.972;2023-03-26T08:21:05;3.00;3.00;3.00
35654;PMS1003;21773;50.010;19.972;2023-03-26T08:24:17;4.00;4.00;4.00
35654;PMS1003;21773;50.010;19.972;2023-03-26T08:27:26;3.00;2.25;2.25
35654;PMS1003;21773;50.010;19.972;2023-03-26T08:30:39;3.00;3.00;3.00
35654;PMS1003;21773;50.010;19.972;2023-03-26T08:33:43;3.00;2.25;2.00
35654;PMS1003;21773;50.010;19.972;2023-03-26T08:36:46;3.00;3.00;3.00
35654;PMS1003;21773;50.010;19.972;2023-03-26T08:39:50;6.00;5.00;5.00
35654;PMS1003;21773;50.010;19.972;2023-03-26T08:54:26;4.40;4.40;4.00
35654;PMS1003;21773;50.010;19.972;2023-03-26T08:58:08;2.00;2.00;2.00
35654;PMS1003;21773;50.010;19.972;2023-03-26T09:20:09;4.75;3.00;3.00
35654;PMS1003;21773;50.010;19.972;2023-03-26T09:27:23;2.00;2.00;2.00
35654;PMS1003;21773;50.010;19.972;2023-03-26T09:34:32;2.00;2.00;2.00
35654;PMS1003;21773;50.010;19.972;2023-03-26T09:37:59;5.00;5.00;4.60
35654;PMS1003;21773;50.010;19.972;2023-03-26T09:41:15;2.00;2.00;2.00
35654;PMS1003;21773;50.010;19.972;2023-03-26T09:44:31;2.80;2.80;2.80
35654;PMS1003;21773;50.010;19.972;2023-03-26T09:51:55;4.00;4.00;4.00
35654;PMS1003;21773;50.010;19.972;2023-03-26T09:55:17;5.00;5.00;5.00
35654;PMS1003;21773;50.010;19.972;2023-03-26T10:02:37;4.00;4.00;4.00
35654;PMS1003;21773;50.010;19.972;2023-03-26T10:05:55;3.40;3.40;3.00
35654;PMS1003;21773;50.010;19.972;2023-03-26T10:09:06;5.00;5.00;5.00
35654;PMS1003;21773;50.010;19.972;2023-03-26T10:12:29;4.00;4.00;4.00
35654;PMS1003;21773;50.010;19.972;2023-03-26T10:15:42;5.40;5.00;4.60
35654;PMS1003;21773;50.010;19.972;2023-03-26T10:19:06;4.00;4.00;3.00
35654;PMS1003;21773;50.010;19.972;2023-03-26T10:22:26;3.20;2.80;2.80
35654;PMS1003;21773;50.010;19.972;2023-03-26T10:25:53;4.60;4.60;4.60
35654;PMS1003;21773;50.010;19.972;2023-03-26T10:29:13;3.25;3.25;3.25
35654;PMS1003;21773;50.010;19.972;2023-03-26T10:32:30;5.00;5.00;5.00
35654;PMS1003;21773;50.010;19.972;2023-03-26T10:35:49;5.00;4.00;4.00
35654;PMS1003;21773;50.010;19.972;2023-03-26T10:39:10;4.00;4.00;4.00
35654;PMS1003;21773;50.010;19.972;2023-03-26T10:42:48;3.00;2.40;2.00
35654;PMS1003;21773;50.010;19.972;2023-03-26T10:50:25;6.40;6.00;6.00
35654;PMS1003;21773;50.010;19.972;2023-03-26T10:53:39;4.00;3.80;3.80
35654;PMS1003;21773;50.010;19.972;2023-03-26T10:56:48;5.20;4.20;4.20
35654;PMS1003;21773;50.010;19.972;2023-03-26T10:59:53;5.00;4.25;4.00
35654;PMS1003;21773;50.010;19.972;2023-03-26T11:03:09;4.00;3.80;3.00
35654;PMS1003;21773;50.010;19.972;2023-03-26T11:06:31;5.00;5.00;5.00
35654;PMS1003;21773;50.010;19.972;2023-03-26T11:09:43;2.20;2.20;2.00
35654;PMS1003;21773;50.010;19.972;2023-03-26T11:12:56;4.40;4.40;4.40
35654;PMS1003;21773;50.010;19.972;2023-03-26T11:16:11;2.20;2.20;2.20
35654;PMS1003;21773;50.010;19.972;2023-03-26T11:19:21;3.80;3.80;3.80
35654;PMS1003;21773;50.010;19.972;2023-03-26T11:22:34;5.60;5.60;5.00
35654;PMS1003;21773;50.010;19.972;2023-03-26T11:25:51;6.00;6.00;5.60
35654;PMS1003;21773;50.010;19.972;2023-03-26T11:29:22;4.25;4.00;4.00
35654;PMS1003;21773;50.010;19.972;2023-03-26T11:32:40;5.00;4.75;4.75
35654;PMS1003;21773;50.010;19.972;2023-03-26T11:35:47;4.00;3.60;3.60
35654;PMS1003;21773;50.010;19.972;2023-03-26T11:38:56;5.00;5.00;5.00
35654;PMS1003;21773;50.010;19.972;2023-03-26T11:42:05;5.00;5.00;5.00
35654;PMS1003;21773;50.010;19.972;2023-03-26T11:45:17;3.80;3.80;3.80
35654;PMS1003;21773;50.010;19.972;2023-03-26T11:48:24;4.50;4.50;4.50
35654;PMS1003;21773;50.010;19.972;2023-03-26T11:51:33;3.00;3.00;3.00
35654;PMS1003;21773;50.010;19.972;2023-03-26T11:54:39;4.00;3.00;3.00
35654;PMS1003;21773;50.010;19.972;2023-03-26T11:57:46;5.50;5.50;5.00
35654;PMS1003;21773;50.010;19.972;2023-03-26T12:00:55;5.00;5.00;5.00
35654;PMS1003;21773;50.010;19.972;2023-03-26T12:04:02;5.20;5.20;5.00
35654;PMS1003;21773;50.010;19.972;2023-03-26T12:07:15;5.00;5.00;5.00
35654;PMS1003;21773;50.010;19.972;2023-03-26T12:10:24;5.00;5.00;5.00
35654;PMS1003;21773;50.010;19.972;2023-03-26T12:13:33;5.00;5.00;5.00
35654;PMS1003;21773;50.010;19.972;2023-03-26T12:16:39;3.00;3.00;2.80
35654;PMS1003;21773;50.010;19.972;2023-03-26T12:19:59;4.00;3.00;3.00
35654;PMS1003;21773;50.010;19.972;2023-03-26T12:23:12;4.00;4.00;4.00
35654;PMS1003;21773;50.010;19.972;2023-03-26T12:26:46;3.00;3.00;2.75
35654;PMS1003;21773;50.010;19.972;2023-03-26T12:30:08;4.00;4.00;3.00
35654;PMS1003;21773;50.010;19.972;2023-03-26T12:33:15;4.00;4.00;4.00
35654;PMS1003;21773;50.010;19.972;2023-03-26T12:36:27;3.00;3.00;2.00
35654;PMS1003;21773;50.010;19.972;2023-03-26T12:39:36;3.00;3.00;3.00
35654;PMS1003;21773;50.010;19.972;2023-03-26T12:43:03;2.00;2.00;2.00
35654;PMS1003;21773;50.010;19.972;2023-03-26T12:46:28;3.20;3.20;3.00
35654;PMS1003;21773;50.010;19.972;2023-03-26T13:00:31;3.00;3.00;3.00
35654;PMS1003;21773;50.010;19.972;2023-03-26T13:03:47;4.00;4.00;4.00
35654;PMS1003;21773;50.010;19.972;2023-03-26T13:07:14;4.00;4.00;4.00
35654;PMS1003;21773;50.010;19.972;2023-03-26T13:14:03;4.00;3.20;3.00
35654;PMS1003;21773;50.010;19.972;2023-03-26T13:17:22;3.00;3.00;3.00
35654;PMS1003;21773;50.010;19.972;2023-03-26T13:20:33;4.00;4.00;4.00
35654;PMS1003;21773;50.010;19.972;2023-03-26T13:23:50;3.00;3.00;3.00
35654;PMS1003;21773;50.010;19.972;2023-03-26T13:27:08;4.00;4.00;3.00
35654;PMS1003;21773;50.010;19.972;2023-03-26T13:30:24;4.80;3.60;3.60
35654;PMS1003;21773;50.010;19.972;2023-03-26T13:33:39;3.00;3.00;3.00
35654;PMS1003;21773;50.010;19.972;2023-03-26T13:36:56;3.80;3.00;3.00
35654;PMS1003;21773;50.010;19.972;2023-03-26T13:40:11;4.00;4.00;3.20
35654;PMS1003;21773;50.010;19.972;2023-03-26T13:43:28;4.00;4.00;3.25
35654;PMS1003;21773;50.010;19.972;2023-03-26T13:46:39;5.60;5.00;5.00
35654;PMS1003;21773;50.010;19.972;2023-03-26T13:49:47;3.00;2.20;2.00
35654;PMS1003;21773;50.010;19.972;2023-03-26T13:52:54;3.80;3.20;3.20
35654;PMS1003;21773;50.010;19.972;2023-03-26T13:56:01;4.00;4.00;3.80
35654;PMS1003;21773;50.010;19.972;2023-03-26T13:59:05;4.20;4.20;4.00
35654;PMS1003;21773;50.010;19.972;2023-03-26T14:05:39;4.00;4.00;3.60
35654;PMS1003;21773;50.010;19.972;2023-03-26T14:08:48;3.60;3.00;3.00
35654;PMS1003;21773;50.010;19.972;2023-03-26T14:15:27;5.00;4.00;4.00
35654;PMS1003;21773;50.010;19.972;2023-03-26T14:18:34;3.00;3.00;3.00
35654;PMS1003;21773;50.010;19.972;2023-03-26T14:21:49;3.00;3.00;2.00
35654;PMS1003;21773;50.010;19.972;2023-03-26T14:25:07;4.00;4.00;3.50
35654;PMS1003;21773;50.010;19.972;2023-03-26T14:28:35;3.20;3.00;2.20
35654;PMS1003;21773;50.010;19.972;2023-03-26T14:35:31;3.00;3.00;3.00
35654;PMS1003;21773;50.010;19.972;2023-03-26T14:38:54;8.00;5.60;5.60
35654;PMS1003;21773;50.010;19.972;2023-03-26T14:42:07;4.00;4.00;4.00
35654;PMS1003;21773;50.010;19.972;2023-03-26T14:45:39;2.00;2.00;2.00
35654;PMS1003;21773;50.010;19.972;2023-03-26T14:48:57;3.00;3.00;3.00
35654;PMS1003;21773;50.010;19.972;2023-03-26T14:52:24;1.50;1.50;1.50
35654;PMS1003;21773;50.010;19.972;2023-03-26T14:55:44;5.00;5.00;5.00
35654;PMS1003;21773;50.010;19.972;2023-03-26T14:59:15;5.40;5.40;5.00
35654;PMS1003;21773;50.010;19.972;2023-03-26T15:06:53;4.00;4.00;4.00
35654;PMS1003;21773;50.010;19.972;2023-03-26T15:10:39;5.00;4.60;4.60
35654;PMS1003;21773;50.010;19.972;2023-03-26T15:14:16;5.00;5.00;5.00
35654;PMS1003;21773;50.010;19.972;2023-03-26T15:21:51;2.00;2.00;2.00
35654;PMS1003;21773;50.010;19.972;2023-03-26T15:25:18;4.00;4.00;4.00
35654;PMS1003;21773;50.010;19.972;2023-03-26T15:36:02;5.00;5.00;5.00
35654;PMS1003;21773;50.010;19.972;2023-03-26T15:39:34;6.50;6.00;5.50
35654;PMS1003;21773;50.010;19.972;2023-03-26T15:43:02;3.00;3.00;3.00
35654;PMS1003;21773;50.010;19.972;2023-03-26T15:46:24;3.60;2.60;2.00
35654;PMS1003;21773;50.010;19.972;2023-03-26T15:49:48;3.40;3.00;3.00
35654;PMS1003;21773;50.010;19.972;2023-03-26T15:52:59;7.00;7.00;6.00
35654;PMS1003;21773;50.010;19.972;2023-03-26T15:56:23;4.40;3.80;3.00
35654;PMS1003;21773;50.010;19.972;2023-03-26T16:09:56;4.00;4.00;4.00
35654;PMS1003;21773;50.010;19.972;2023-03-26T16:13:22;4.60;4.40;4.40
35654;PMS1003;21773;50.010;19.972;2023-03-26T16:16:54;4.33;4.33;4.00
35654;PMS1003;21773;50.010;19.972;2023-03-26T16:20:12;5.00;5.00;5.00
35654;PMS1003;21773;50.010;19.972;2023-03-26T16:23:32;4.25;4.25;4.00
35654;PMS1003;21773;50.010;19.972;2023-03-26T16:27:03;4.25;4.00;4.00
35654;PMS1003;21773;50.010;19.972;2023-03-26T16:30:26;4.00;4.00;4.00
35654;PMS1003;21773;50.010;19.972;2023-03-26T16:33:34;3.40;3.00;3.00
35654;PMS1003;21773;50.010;19.972;2023-03-26T16:36:41;4.60;4.60;4.00
35654;PMS1003;21773;50.010;19.972;2023-03-26T16:39:45;5.40;5.00;5.00
35654;PMS1003;21773;50.010;19.972;2023-03-26T16:42:50;2.00;2.00;2.00
35654;PMS1003;21773;50.010;19.972;2023-03-26T16:46:04;3.00;3.00;3.00
35654;PMS1003;21773;50.010;19.972;2023-03-26T16:49:20;5.80;5.00;4.80
35654;PMS1003;21773;50.010;19.972;2023-03-26T16:52:43;3.50;3.50;3.50
35654;PMS1003;21773;50.010;19.972;2023-03-26T16:55:54;4.20;4.20;4.00
35654;PMS1003;21773;50.010;19.972;2023-03-26T16:59:06;5.00;4.00;3.00
35654;PMS1003;21773;50.010;19.972;2023-03-26T17:02:14;4.40;4.40;4.00
35654;PMS1003;21773;50.010;19.972;2023-03-26T17:05:31;4.00;3.80;3.00
35654;PMS1003;21773;50.010;19.972;2023-03-26T17:08:41;3.00;3.00;3.00
35654;PMS1003;21773;50.010;19.972;2023-03-26T17:11:53;7.25;7.25;7.00
35654;PMS1003;21773;50.010;19.972;2023-03-26T17:15:09;6.25;5.25;5.00
35654;PMS1003;21773;50.010;19.972;2023-03-26T17:18:38;6.00;6.00;5.00
35654;PMS1003;21773;50.010;19.972;2023-03-26T17:21:51;6.00;6.00;5.60
35654;PMS1003;21773;50.010;19.972;2023-03-26T17:25:00;8.00;8.00;7.00
35654;PMS1003;21773;50.010;19.972;2023-03-26T17:31:59;6.40;6.40;5.40
35654;PMS1003;21773;50.010;19.972;2023-03-26T17:35:09;9.00;7.40;6.40
35654;PMS1003;21773;50.010;19.972;2023-03-26T17:42:10;9.80;9.00;8.80
35654;PMS1003;21773;50.010;19.972;2023-03-26T17:45:19;9.75;9.75;9.75
35654;PMS1003;21773;50.010;19.972;2023-03-26T17:48:32;11.00;11.00;11.00
35654;PMS1003;21773;50.010;19.972;2023-03-26T17:51:45;9.00;8.25;8.00
35654;PMS1003;21773;50.010;19.972;2023-03-26T17:54:53;11.00;11.00;10.00
35654;PMS1003;21773;50.010;19.972;2023-03-26T17:57:59;9.00;8.20;8.00
35654;PMS1003;21773;50.010;19.972;2023-03-26T18:01:06;10.20;10.00;9.00
35654;PMS1003;21773;50.010;19.972;2023-03-26T18:04:25;12.00;11.00;11.00
35654;PMS1003;21773;50.010;19.972;2023-03-26T18:07:44;5.20;5.20;4.20
35654;PMS1003;21773;50.010;19.972;2023-03-26T18:14:58;9.00;9.00;8.00
35654;PMS1003;21773;50.010;19.972;2023-03-26T18:18:14;10.50;10.50;9.00
35654;PMS1003;21773;50.010;19.972;2023-03-26T18:21:24;9.80;9.80;8.80
35654;PMS1003;21773;50.010;19.972;2023-03-26T18:24:36;12.00;11.00;9.00
35654;PMS1003;21773;50.010;19.972;2023-03-26T18:27:40;14.00;12.25;11.00
35654;PMS1003;21773;50.010;19.972;2023-03-26T18:30:45;12.20;10.00;9.00
35654;PMS1003;21773;50.010;19.972;2023-03-26T18:33:53;12.00;11.40;10.40
35654;PMS1003;21773;50.010;19.972;2023-03-26T18:37:08;13.00;12.00;11.00
35654;PMS1003;21773;50.010;19.972;2023-03-26T18:40:16;13.50;13.00;12.50
35654;PMS1003;21773;50.010;19.972;2023-03-26T18:43:21;13.00;13.00;11.75
35654;PMS1003;21773;50.010;19.972;2023-03-26T18:46:35;15.00;14.00;13.40
35654;PMS1003;21773;50.010;19.972;2023-03-26T18:49:40;12.50;12.00;11.00
35654;PMS1003;21773;50.010;19.972;2023-03-26T18:52:46;14.00;12.00;11.00
35654;PMS1003;21773;50.010;19.972;2023-03-26T18:55:50;15.00;14.40;13.00
35654;PMS1003;21773;50.010;19.972;2023-03-26T18:58:54;11.33;10.00;9.00
35654;PMS1003;21773;50.010;19.972;2023-03-26T19:02:00;13.80;11.80;10.80
35654;PMS1003;21773;50.010;19.972;2023-03-26T19:05:08;13.00;12.33;11.00
35654;PMS1003;21773;50.010;19.972;2023-03-26T19:08:17;11.80;10.20;9.20
35654;PMS1003;21773;50.010;19.972;2023-03-26T19:11:21;13.00;12.80;10.80
35654;PMS1003;21773;50.010;19.972;2023-03-26T19:14:27;12.00;11.00;8.60
35654;PMS1003;21773;50.010;19.972;2023-03-26T19:17:37;13.60;12.60;10.60
35654;PMS1003;21773;50.010;19.972;2023-03-26T19:20:44;21.25;20.00;18.00
35654;PMS1003;21773;50.010;19.972;2023-03-26T19:23:52;21.75;21.00;19.00
35654;PMS1003;21773;50.010;19.972;2023-03-26T19:26:56;16.50;16.00;15.00
35654;PMS1003;21773;50.010;19.972;2023-03-26T19:30:00;14.00;13.00;12.00
35654;PMS1003;21773;50.010;19.972;2023-03-26T19:33:05;13.40;12.40;12.00
35654;PMS1003;21773;50.010;19.972;2023-03-26T19:36:18;15.20;13.00;11.80
35654;PMS1003;21773;50.010;19.972;2023-03-26T19:39:24;13.00;13.00;12.00
35654;PMS1003;21773;50.010;19.972;2023-03-26T19:42:40;14.25;12.75;11.75
35654;PMS1003;21773;50.010;19.972;2023-03-26T19:45:45;15.00;14.40;12.00
35654;PMS1003;21773;50.010;19.972;2023-03-26T19:49:02;12.00;11.00;10.00
35654;PMS1003;21773;50.010;19.972;2023-03-26T19:52:11;10.40;10.00;9.40
35654;PMS1003;21773;50.010;19.972;2023-03-26T19:55:20;9.00;9.00;7.60
35654;PMS1003;21773;50.010;19.972;2023-03-26T19:58:24;9.00;7.60;6.60
35654;PMS1003;21773;50.010;19.972;2023-03-26T20:01:28;7.75;7.00;7.00
35654;PMS1003;21773;50.010;19.972;2023-03-26T20:04:32;11.75;11.75;11.00
35654;PMS1003;21773;50.010;19.972;2023-03-26T20:07:36;13.50;11.00;10.50
35654;PMS1003;21773;50.010;19.972;2023-03-26T20:10:41;9.00;9.00;8.00
35654;PMS1003;21773;50.010;19.972;2023-03-26T20:13:44;9.00;8.00;7.00
35654;PMS1003;21773;50.010;19.972;2023-03-26T20:16:48;10.00;8.80;7.80
35654;PMS1003;21773;50.010;19.972;2023-03-26T20:19:51;11.00;11.00;10.00
35654;PMS1003;21773;50.010;19.972;2023-03-26T20:22:54;8.00;7.67;7.00
35654;PMS1003;21773;50.010;19.972;2023-03-26T20:26:00;8.00;7.00;7.00
35654;PMS1003;21773;50.010;19.972;2023-03-26T20:29:03;9.00;9.00;7.00